Time;durP1;ratioP1;P1;durP2;ratioP2;P2;SDS_P1;SDS_P2;PMS_P1;PMS_P2;Temp;Humidity;BMP_temperature;BMP_pressure;BME280_temperature;BME280_humidity;BME280_pressure;Samples;Min_cycle;Max_cycle;Signal;HPM_P1;HPM_P2
2022/10/30 00:01:00;;;;;;;;;;;21.20;99.90;;;;;;5113240;28;19981;-86
2022/10/30 00:03:29;;;;;;;;;;;21.20;99.90;;;;;;5117026;28;20392;-87
2022/10/30 00:05:57;;;;;;;;;;;21.10;99.90;;;;;;5117333;28;20177;-86
2022/10/30 00:08:26;;;;;;;;;;;21.20;99.90;;;;;;5115870;28;19947;-86
2022/10/30 00:11:03;;;;;;;;;;;21.20;99.90;;;;;;5115722;28;19908;-86
2022/10/30 00:13:29;;;;;;;;;;;21.10;99.90;;;;;;5115575;28;19947;-87
2022/10/30 00:15:57;;;;;;;;;;;21.10;99.90;;;;;;5115695;28;19943;-86
2022/10/30 00:18:23;;;;;;;;;;;21.10;99.90;;;;;;5113632;28;19972;-86
2022/10/30 00:20:48;;;;;;;;;;;21.20;99.90;;;;;;5114103;28;19916;-86
2022/10/30 00:23:17;;;;;;;;;;;21.10;99.90;;;;;;5115641;28;19912;-86
2022/10/30 00:25:42;;;;;;;;;;;21.10;99.90;;;;;;5115004;28;19908;-87
2022/10/30 00:28:08;;;;;;;;;;;21.10;99.90;;;;;;5091643;28;20250;-86
2022/10/30 00:30:34;;;;;;;;;;;21.10;99.90;;;;;;5115183;27;20252;-86
2022/10/30 00:33:03;;;;;;;;;;;21.10;99.90;;;;;;5113915;28;19922;-86
2022/10/30 00:35:29;;;;;;;;;;;21.10;99.90;;;;;;5112814;28;19958;-86
2022/10/30 00:37:55;;;;;;;;;;;21.10;99.90;;;;;;5114476;28;20018;-86
2022/10/30 00:40:26;;;;;;;;;;;21.10;99.90;;;;;;5115001;28;19915;-87
2022/10/30 00:42:53;;;;;;;;;;;21.10;99.90;;;;;;5115355;28;19912;-86
2022/10/30 00:45:18;;;;;;;;;;;21.10;99.90;;;;;;5115150;28;19907;-86
2022/10/30 00:47:49;;;;;;;;;;;21.10;99.90;;;;;;5117394;28;19935;-85
2022/10/30 00:50:20;;;;;;;;;;;21.10;99.90;;;;;;5116475;28;19908;-86
2022/10/30 00:52:55;;;;;;;;;;;21.10;99.90;;;;;;5118155;28;19923;-86
2022/10/30 00:55:25;;;;;;;;;;;21.10;99.90;;;;;;5118401;28;20326;-86
2022/10/30 00:57:52;;;;;;;;;;;21.10;99.90;;;;;;5117158;28;19965;-86
2022/10/30 01:00:19;;;;;;;;;;;21.10;99.90;;;;;;5118290;28;19908;-86
2022/10/30 01:02:45;;;;;;;;;;;21.10;99.90;;;;;;5116248;28;20165;-86
2022/10/30 01:05:14;;;;;;;;;;;21.10;99.90;;;;;;5117522;28;19977;-86
2022/10/30 01:07:39;;;;;;;;;;;21.00;99.90;;;;;;5116178;28;19908;-86
2022/10/30 01:10:08;;;;;;;;;;;21.10;99.90;;;;;;5116068;28;19907;-86
2022/10/30 01:12:34;;;;;;;;;;;21.00;99.90;;;;;;5117625;28;19988;-86
2022/10/30 01:15:00;;;;;;;;;;;21.00;99.90;;;;;;5116897;28;19920;-86
2022/10/30 01:17:44;;;;;;;;;;;21.00;99.90;;;;;;5116196;28;19912;-86
2022/10/30 01:20:18;;;;;;;;;;;21.00;99.90;;;;;;5117294;28;20010;-86
2022/10/30 01:22:56;;;;;;;;;;;21.00;99.90;;;;;;5115876;28;19976;-86
2022/10/30 01:26:08;;;;;;;;;;;21.00;99.90;;;;;;5115993;28;20211;-86
2022/10/30 01:28:33;;;;;;;;;;;21.00;99.90;;;;;;5116578;28;20250;-86
2022/10/30 01:31:18;;;;;;;;;;;21.00;99.90;;;;;;5117996;28;19960;-86
2022/10/30 01:34:05;;;;;;;;;;;21.00;99.90;;;;;;5116789;28;19986;-86
2022/10/30 01:36:50;;;;;;;;;;;21.00;99.90;;;;;;5114923;28;19974;-86
2022/10/30 01:39:26;;;;;;;;;;;21.00;99.90;;;;;;5114531;28;19908;-86
2022/10/30 01:41:52;;;;;;;;;;;21.00;99.90;;;;;;5112704;28;19908;-86
2022/10/30 01:44:21;;;;;;;;;;;21.00;99.90;;;;;;5114349;28;20252;-86
2022/10/30 01:46:53;;;;;;;;;;;21.00;99.90;;;;;;5113860;28;19908;-86
2022/10/30 01:49:28;;;;;;;;;;;21.00;99.90;;;;;;5112690;28;19912;-86
2022/10/30 01:52:12;;;;;;;;;;;21.00;99.90;;;;;;5115155;28;20184;-86
2022/10/30 01:54:44;;;;;;;;;;;20.90;99.90;;;;;;5116872;27;19908;-86
2022/10/30 01:57:28;;;;;;;;;;;21.00;99.90;;;;;;5116852;28;19923;-86
2022/10/30 01:59:58;;;;;;;;;;;20.90;99.90;;;;;;5116880;28;19942;-86
2022/10/30 02:02:32;;;;;;;;;;;20.90;99.90;;;;;;5117327;28;19919;-86
2022/10/30 02:04:59;;;;;;;;;;;20.90;99.90;;;;;;5117909;28;19908;-86
2022/10/30 02:07:24;;;;;;;;;;;20.90;99.90;;;;;;5116666;28;19947;-86
2022/10/30 02:09:51;;;;;;;;;;;20.90;99.90;;;;;;5116763;28;19985;-86
2022/10/30 02:12:17;;;;;;;;;;;20.90;99.90;;;;;;5115697;28;20022;-86
2022/10/30 02:14:48;;;;;;;;;;;20.90;99.90;;;;;;5115800;28;19908;-86
2022/10/30 02:17:13;;;;;;;;;;;20.90;99.90;;;;;;5117195;28;19907;-86
2022/10/30 02:19:39;;;;;;;;;;;20.90;99.90;;;;;;5116846;28;20175;-86
2022/10/30 02:22:04;;;;;;;;;;;20.90;99.90;;;;;;5116315;28;19968;-86
2022/10/30 02:24:31;;;;;;;;;;;20.90;99.90;;;;;;5116242;28;19939;-86
2022/10/30 02:27:00;;;;;;;;;;;20.90;99.90;;;;;;5116069;28;19919;-86
2022/10/30 02:29:35;;;;;;;;;;;20.90;99.90;;;;;;5116711;28;20209;-85
2022/10/30 02:32:03;;;;;;;;;;;20.90;99.90;;;;;;5116295;28;19919;-86
2022/10/30 02:34:38;;;;;;;;;;;20.80;99.90;;;;;;5114886;28;20099;-86
2022/10/30 02:37:04;;;;;;;;;;;20.80;99.90;;;;;;5114398;28;19924;-86
2022/10/30 02:39:29;;;;;;;;;;;20.80;99.90;;;;;;5114457;28;20304;-86
2022/10/30 02:41:55;;;;;;;;;;;20.80;99.90;;;;;;5114811;28;20322;-86
2022/10/30 02:44:42;;;;;;;;;;;20.80;99.90;;;;;;5115315;28;20289;-86
2022/10/30 02:47:07;;;;;;;;;;;20.80;99.90;;;;;;5115002;28;19938;-86
2022/10/30 02:49:33;;;;;;;;;;;20.80;99.90;;;;;;5115538;28;20264;-86
2022/10/30 02:52:02;;;;;;;;;;;20.80;99.90;;;;;;5116892;28;20300;-86
2022/10/30 02:54:27;;;;;;;;;;;20.80;99.90;;;;;;5117830;28;19908;-86
2022/10/30 02:56:53;;;;;;;;;;;20.80;99.90;;;;;;5115567;28;19935;-86
2022/10/30 02:59:19;;;;;;;;;;;20.80;99.90;;;;;;5115184;28;20033;-86
2022/10/30 03:01:45;;;;;;;;;;;20.80;99.90;;;;;;5115821;28;20183;-86
2022/10/30 03:04:10;;;;;;;;;;;20.80;99.90;;;;;;5115176;28;20297;-86
2022/10/30 03:06:36;;;;;;;;;;;20.80;99.90;;;;;;5114875;28;20277;-86
2022/10/30 03:09:04;;;;;;;;;;;20.80;99.90;;;;;;5115757;28;19908;-86
2022/10/30 03:11:32;;;;;;;;;;;20.80;99.90;;;;;;5116424;28;20182;-86
2022/10/30 03:13:58;;;;;;;;;;;20.80;99.90;;;;;;5116838;28;19968;-86
2022/10/30 03:16:32;;;;;;;;;;;20.70;99.90;;;;;;5117391;28;19966;-86
2022/10/30 03:19:02;;;;;;;;;;;20.70;99.90;;;;;;5116627;28;19915;-86
2022/10/30 03:21:28;;;;;;;;;;;20.70;99.90;;;;;;5114449;28;19918;-86
2022/10/30 03:23:54;;;;;;;;;;;20.70;99.90;;;;;;5114944;28;20327;-86
2022/10/30 03:26:20;;;;;;;;;;;20.70;99.90;;;;;;5114492;28;19960;-86
2022/10/30 03:28:46;;;;;;;;;;;20.70;99.90;;;;;;5113704;28;19919;-86
2022/10/30 03:31:16;;;;;;;;;;;20.70;99.90;;;;;;5113624;28;19911;-86
2022/10/30 03:33:45;;;;;;;;;;;20.70;99.90;;;;;;5115305;28;19908;-86
2022/10/30 03:36:11;;;;;;;;;;;20.70;99.90;;;;;;5115962;27;20193;-86
2022/10/30 03:38:39;;;;;;;;;;;20.70;99.90;;;;;;5120184;28;19947;-86
2022/10/30 03:41:05;;;;;;;;;;;20.70;99.90;;;;;;5120652;28;19923;-86
2022/10/30 03:43:30;;;;;;;;;;;20.70;99.90;;;;;;5120954;28;19912;-86
2022/10/30 03:45:56;;;;;;;;;;;20.70;99.90;;;;;;5121166;28;19918;-86
2022/10/30 03:48:42;;;;;;;;;;;20.70;99.90;;;;;;5119000;28;19908;-86
2022/10/30 03:51:07;;;;;;;;;;;20.60;99.90;;;;;;5119208;28;19991;-86
2022/10/30 03:53:36;;;;;;;;;;;20.60;99.90;;;;;;5119424;28;20015;-86
2022/10/30 03:56:04;;;;;;;;;;;20.60;99.90;;;;;;5118481;28;19908;-86
2022/10/30 03:58:33;;;;;;;;;;;20.60;99.90;;;;;;5120243;28;19908;-86
2022/10/30 04:01:00;;;;;;;;;;;20.60;99.90;;;;;;5119347;28;19908;-86
2022/10/30 04:03:29;;;;;;;;;;;20.60;99.90;;;;;;5120133;28;19919;-86
2022/10/30 04:05:55;;;;;;;;;;;20.60;99.90;;;;;;5120006;28;19969;-86
2022/10/30 04:08:20;;;;;;;;;;;20.60;99.90;;;;;;5120222;28;19911;-86
2022/10/30 04:10:46;;;;;;;;;;;20.60;99.90;;;;;;5119401;28;19919;-86
2022/10/30 04:13:23;;;;;;;;;;;20.60;99.90;;;;;;5119248;28;19930;-86
2022/10/30 04:15:49;;;;;;;;;;;20.60;99.90;;;;;;5117535;28;20015;-86
2022/10/30 04:18:21;;;;;;;;;;;20.60;99.90;;;;;;5119216;28;20002;-86
2022/10/30 04:20:50;;;;;;;;;;;20.50;99.90;;;;;;5118647;28;19915;-86
2022/10/30 04:23:27;;;;;;;;;;;20.50;99.90;;;;;;5118272;28;19923;-86
2022/10/30 04:25:55;;;;;;;;;;;20.50;99.90;;;;;;5118081;28;20203;-86
2022/10/30 04:28:24;;;;;;;;;;;20.50;99.90;;;;;;5118874;28;19908;-86
2022/10/30 04:30:53;;;;;;;;;;;20.50;99.90;;;;;;5118412;28;20201;-86
2022/10/30 04:33:18;;;;;;;;;;;20.50;99.90;;;;;;5119381;28;20007;-86
2022/10/30 04:35:47;;;;;;;;;;;20.50;99.90;;;;;;5118568;28;19943;-86
2022/10/30 04:38:18;;;;;;;;;;;20.50;99.90;;;;;;5118538;28;19930;-86
2022/10/30 04:40:48;;;;;;;;;;;20.50;99.90;;;;;;5118693;28;19912;-86
2022/10/30 04:43:16;;;;;;;;;;;20.50;99.90;;;;;;5118631;28;19912;-86
2022/10/30 04:45:45;;;;;;;;;;;20.50;99.90;;;;;;5118109;28;20170;-86
2022/10/30 04:48:12;;;;;;;;;;;20.40;99.90;;;;;;5117982;28;19916;-86
2022/10/30 04:50:38;;;;;;;;;;;20.40;99.90;;;;;;5119087;28;19908;-86
2022/10/30 04:53:05;;;;;;;;;;;20.40;99.90;;;;;;5119761;28;19915;-86
2022/10/30 04:55:49;;;;;;;;;;;20.40;99.90;;;;;;5119254;28;19908;-86
2022/10/30 04:58:15;;;;;;;;;;;20.40;99.90;;;;;;5119156;28;19919;-86
2022/10/30 05:00:40;;;;;;;;;;;20.40;99.90;;;;;;5120257;28;19908;-86
2022/10/30 05:03:06;;;;;;;;;;;20.30;99.90;;;;;;5119191;28;19912;-86
2022/10/30 05:05:32;;;;;;;;;;;20.30;99.90;;;;;;5119841;28;20185;-86
2022/10/30 05:07:57;;;;;;;;;;;20.40;99.90;;;;;;5118052;28;20193;-86
2022/10/30 05:10:23;;;;;;;;;;;20.40;99.90;;;;;;5117489;28;19908;-86
2022/10/30 05:12:50;;;;;;;;;;;20.40;99.90;;;;;;5117362;28;20102;-86
2022/10/30 05:15:16;;;;;;;;;;;20.40;99.90;;;;;;5116808;28;19907;-86
2022/10/30 05:17:41;;;;;;;;;;;20.30;99.90;;;;;;5116996;28;19949;-86
2022/10/30 05:20:10;;;;;;;;;;;20.30;99.90;;;;;;5117037;28;19904;-86
2022/10/30 05:22:35;;;;;;;;;;;20.30;99.90;;;;;;5116610;28;20007;-86
2022/10/30 05:25:01;;;;;;;;;;;20.30;99.90;;;;;;5117319;28;20106;-86
2022/10/30 05:27:27;;;;;;;;;;;20.30;99.90;;;;;;5117572;28;19914;-86
2022/10/30 05:29:52;;;;;;;;;;;20.30;99.90;;;;;;5118429;28;19930;-86
2022/10/30 05:32:21;;;;;;;;;;;20.30;99.90;;;;;;5117768;28;20002;-86
2022/10/30 05:34:49;;;;;;;;;;;20.30;99.90;;;;;;5117186;28;19943;-86
2022/10/30 05:40:37;;;;;;;;;;;20.30;99.90;;;;;;5106117;28;19907;-86
2022/10/30 05:43:04;;;;;;;;;;;20.20;99.90;;;;;;5118317;28;19922;-86
2022/10/30 05:45:39;;;;;;;;;;;20.20;99.90;;;;;;5117912;28;19998;-86
2022/10/30 05:48:05;;;;;;;;;;;20.30;99.90;;;;;;5117472;28;19908;-86
2022/10/30 05:50:33;;;;;;;;;;;20.20;99.90;;;;;;5117746;28;19908;-86
2022/10/30 05:53:04;;;;;;;;;;;20.20;99.90;;;;;;5117403;28;19907;-86
2022/10/30 05:55:41;;;;;;;;;;;20.20;99.90;;;;;;5116822;28;19919;-86
2022/10/30 05:58:08;;;;;;;;;;;20.20;99.90;;;;;;5116187;28;19912;-86
2022/10/30 06:00:34;;;;;;;;;;;20.20;99.90;;;;;;5115001;28;19974;-86
2022/10/30 06:03:01;;;;;;;;;;;20.20;99.90;;;;;;5114127;28;19924;-86
2022/10/30 06:05:39;;;;;;;;;;;20.20;99.90;;;;;;5115578;28;19957;-86
2022/10/30 06:08:10;;;;;;;;;;;20.20;99.90;;;;;;5116156;28;20201;-86
2022/10/30 06:10:36;;;;;;;;;;;20.20;99.90;;;;;;5115082;28;19908;-86
2022/10/30 06:16:07;;;;;;;;;;;20.20;99.90;;;;;;5114321;28;19920;-86
2022/10/30 06:18:33;;;;;;;;;;;20.20;99.90;;;;;;5115920;28;19908;-86
2022/10/30 06:23:51;;;;;;;;;;;20.10;99.90;;;;;;5086654;28;19972;-86
2022/10/30 06:29:01;;;;;;;;;;;20.20;99.90;;;;;;5118644;28;19977;-86
2022/10/30 06:31:26;;;;;;;;;;;20.20;99.90;;;;;;5119450;28;19911;-86
2022/10/30 06:33:52;;;;;;;;;;;20.20;99.90;;;;;;5117141;28;19919;-86
2022/10/30 06:36:18;;;;;;;;;;;20.10;99.90;;;;;;5115668;28;19912;-86
2022/10/30 06:38:43;;;;;;;;;;;20.20;99.90;;;;;;5116182;28;19915;-86
2022/10/30 06:41:09;;;;;;;;;;;20.20;99.90;;;;;;5116531;28;19918;-86
2022/10/30 06:43:35;;;;;;;;;;;20.20;99.90;;;;;;5115367;28;19975;-86
2022/10/30 06:46:00;;;;;;;;;;;20.20;99.90;;;;;;5114077;28;19912;-86
2022/10/30 06:48:26;;;;;;;;;;;20.20;99.90;;;;;;5115324;28;20262;-86
2022/10/30 06:50:55;;;;;;;;;;;20.20;99.90;;;;;;5117620;28;19916;-86
2022/10/30 06:53:21;;;;;;;;;;;20.20;99.90;;;;;;5115500;28;19929;-86
2022/10/30 06:55:53;;;;;;;;;;;20.20;99.90;;;;;;5114220;28;19908;-86
2022/10/30 06:58:19;;;;;;;;;;;20.20;99.90;;;;;;5116273;28;19992;-86
2022/10/30 07:00:44;;;;;;;;;;;20.20;99.90;;;;;;5115088;28;20349;-86
2022/10/30 07:03:13;;;;;;;;;;;20.30;99.90;;;;;;5113579;28;19912;-86
2022/10/30 07:05:38;;;;;;;;;;;20.30;99.90;;;;;;5116163;28;20134;-86
2022/10/30 07:08:04;;;;;;;;;;;20.40;99.90;;;;;;5113543;28;20254;-86
2022/10/30 07:10:33;;;;;;;;;;;20.40;99.90;;;;;;5114459;28;19915;-86
2022/10/30 07:12:58;;;;;;;;;;;20.40;99.90;;;;;;5115409;28;19908;-86
2022/10/30 07:15:25;;;;;;;;;;;20.50;99.90;;;;;;5116177;28;20202;-86
2022/10/30 07:17:54;;;;;;;;;;;20.50;99.90;;;;;;5114919;28;19911;-86
2022/10/30 07:20:20;;;;;;;;;;;20.60;99.90;;;;;;5114350;28;19973;-86
2022/10/30 07:22:46;;;;;;;;;;;20.70;99.90;;;;;;5115418;28;19973;-86
2022/10/30 07:25:11;;;;;;;;;;;20.80;99.90;;;;;;5115767;28;19908;-86
2022/10/30 07:27:41;;;;;;;;;;;21.40;99.70;;;;;;5115417;28;19980;-86
2022/10/30 07:30:07;;;;;;;;;;;22.00;98.20;;;;;;5115102;28;19915;-86
2022/10/30 07:32:32;;;;;;;;;;;22.50;96.90;;;;;;5115406;28;19916;-86
2022/10/30 07:34:58;;;;;;;;;;;22.90;95.50;;;;;;5113767;28;20197;-86
2022/10/30 07:37:23;;;;;;;;;;;23.30;94.20;;;;;;5114063;28;19915;-86
2022/10/30 07:39:49;;;;;;;;;;;23.60;93.00;;;;;;5113979;28;19969;-86
2022/10/30 07:42:14;;;;;;;;;;;24.00;91.90;;;;;;5114151;28;20213;-86
2022/10/30 07:44:40;;;;;;;;;;;24.30;90.60;;;;;;5112631;28;20060;-87
2022/10/30 07:47:06;;;;;;;;;;;24.50;89.10;;;;;;5113383;28;19916;-87
2022/10/30 07:49:34;;;;;;;;;;;24.80;87.10;;;;;;5114396;28;20075;-87
2022/10/30 07:52:00;;;;;;;;;;;24.90;85.20;;;;;;5112496;28;20197;-87
2022/10/30 07:54:25;;;;;;;;;;;25.10;83.80;;;;;;5113408;28;19907;-87
2022/10/30 07:56:54;;;;;;;;;;;25.40;82.00;;;;;;5113730;28;19919;-87
2022/10/30 07:59:19;;;;;;;;;;;25.60;80.30;;;;;;5114849;28;19919;-87
2022/10/30 08:01:45;;;;;;;;;;;25.40;79.70;;;;;;5114606;28;19908;-87
2022/10/30 08:04:12;;;;;;;;;;;25.30;80.30;;;;;;5113015;28;19911;-87
2022/10/30 08:06:38;;;;;;;;;;;25.40;80.00;;;;;;5114015;28;19912;-87
2022/10/30 08:09:07;;;;;;;;;;;25.50;79.20;;;;;;5112930;28;19908;-86
2022/10/30 08:11:32;;;;;;;;;;;25.70;77.80;;;;;;5112583;28;19916;-87
2022/10/30 08:13:58;;;;;;;;;;;26.00;76.40;;;;;;5115495;28;20281;-87
2022/10/30 08:16:24;;;;;;;;;;;26.20;74.80;;;;;;5114413;28;19908;-87
2022/10/30 08:18:52;;;;;;;;;;;26.40;73.30;;;;;;5112086;28;19918;-87
2022/10/30 08:21:18;;;;;;;;;;;26.70;71.70;;;;;;5112720;28;19912;-87
2022/10/30 08:23:44;;;;;;;;;;;26.90;70.30;;;;;;5115013;28;19916;-87
2022/10/30 08:26:09;;;;;;;;;;;26.90;69.70;;;;;;5116201;28;19943;-87
2022/10/30 08:28:35;;;;;;;;;;;27.20;68.50;;;;;;5116062;28;19914;-87
2022/10/30 08:31:04;;;;;;;;;;;27.40;67.30;;;;;;5115474;28;19950;-87
2022/10/30 08:33:30;;;;;;;;;;;27.60;66.00;;;;;;5115832;28;19919;-87
2022/10/30 08:35:57;;;;;;;;;;;27.90;64.80;;;;;;5115687;28;19907;-87
2022/10/30 08:38:23;;;;;;;;;;;28.10;63.80;;;;;;5114249;28;20285;-87
2022/10/30 08:40:51;;;;;;;;;;;28.20;62.70;;;;;;5115001;28;19914;-87
2022/10/30 08:43:20;;;;;;;;;;;28.40;61.90;;;;;;5114849;28;19912;-87
2022/10/30 08:45:46;;;;;;;;;;;28.50;61.00;;;;;;5115697;28;19907;-87
2022/10/30 08:48:13;;;;;;;;;;;28.70;60.30;;;;;;5114771;28;19972;-87
2022/10/30 08:50:39;;;;;;;;;;;28.80;59.60;;;;;;5114041;28;20353;-87
2022/10/30 08:53:06;;;;;;;;;;;28.90;59.30;;;;;;5111881;28;20003;-87
2022/10/30 08:55:32;;;;;;;;;;;29.00;59.00;;;;;;5113542;28;20154;-87
2022/10/30 08:57:58;;;;;;;;;;;29.10;58.70;;;;;;5113650;28;19919;-87
2022/10/30 09:00:24;;;;;;;;;;;29.10;58.50;;;;;;5115201;28;20155;-87
2022/10/30 09:02:50;;;;;;;;;;;29.00;58.30;;;;;;5114658;28;19969;-87
2022/10/30 09:05:15;;;;;;;;;;;29.10;58.20;;;;;;5113331;28;20163;-87
2022/10/30 09:07:41;;;;;;;;;;;29.20;58.10;;;;;;5113352;28;20151;-87
2022/10/30 09:10:07;;;;;;;;;;;29.20;57.90;;;;;;5112461;28;19919;-87
2022/10/30 09:12:33;;;;;;;;;;;29.30;57.80;;;;;;5113167;28;20258;-87
2022/10/30 09:15:02;;;;;;;;;;;29.20;57.70;;;;;;5110977;28;19911;-87
2022/10/30 09:17:28;;;;;;;;;;;29.10;57.70;;;;;;5112229;28;19919;-87
2022/10/30 09:19:56;;;;;;;;;;;29.00;57.80;;;;;;5115700;28;19907;-87
2022/10/30 09:22:25;;;;;;;;;;;28.80;57.90;;;;;;5115072;28;19912;-87
2022/10/30 09:24:51;;;;;;;;;;;28.40;58.10;;;;;;5112207;28;19912;-87
2022/10/30 09:27:16;;;;;;;;;;;28.00;58.70;;;;;;5112488;28;20073;-87
2022/10/30 09:29:42;;;;;;;;;;;27.50;59.30;;;;;;5114024;28;19918;-87
2022/10/30 09:32:10;;;;;;;;;;;27.10;60.40;;;;;;5115158;28;19908;-87
2022/10/30 09:34:39;;;;;;;;;;;26.70;62.10;;;;;;5113928;28;20014;-87
2022/10/30 09:37:05;;;;;;;;;;;26.40;63.90;;;;;;5113665;28;19919;-87
2022/10/30 09:39:30;;;;;;;;;;;26.10;65.70;;;;;;5115919;28;20281;-87
2022/10/30 09:42:09;;;;;;;;;;;25.80;67.40;;;;;;5115352;28;19946;-87
2022/10/30 09:44:53;;;;;;;;;;;25.60;69.00;;;;;;5115329;28;19954;-87
2022/10/30 09:47:37;;;;;;;;;;;25.40;70.60;;;;;;5114243;28;19915;-87
2022/10/30 09:50:24;;;;;;;;;;;25.20;72.10;;;;;;5113826;28;19908;-87
2022/10/30 09:53:08;;;;;;;;;;;25.10;73.50;;;;;;5113108;28;19919;-87
2022/10/30 09:55:49;;;;;;;;;;;25.00;74.70;;;;;;5113589;28;19907;-87
2022/10/30 09:58:35;;;;;;;;;;;24.90;75.80;;;;;;5113386;28;19904;-88
2022/10/30 10:01:12;;;;;;;;;;;24.80;76.70;;;;;;5081441;28;19988;-88
2022/10/30 10:03:56;;;;;;;;;;;24.70;77.60;;;;;;5113997;28;20258;-86
2022/10/30 10:06:25;;;;;;;;;;;24.60;78.30;;;;;;5111595;28;20293;-87
2022/10/30 10:08:57;;;;;;;;;;;24.60;79.10;;;;;;5110841;28;19962;-86
2022/10/30 10:11:37;;;;;;;;;;;24.50;79.80;;;;;;5111581;28;20167;-85
2022/10/30 10:14:03;;;;;;;;;;;24.40;80.50;;;;;;5113096;28;19908;-85
2022/10/30 10:16:30;;;;;;;;;;;24.40;81.30;;;;;;5112857;28;20239;-85
2022/10/30 10:18:56;;;;;;;;;;;24.40;81.90;;;;;;5112429;28;19907;-85
2022/10/30 10:21:28;;;;;;;;;;;24.30;82.40;;;;;;5112884;28;20209;-85
2022/10/30 10:23:59;;;;;;;;;;;24.30;82.90;;;;;;5113560;28;19912;-85
2022/10/30 10:26:28;;;;;;;;;;;24.20;83.80;;;;;;5111352;28;19919;-85
2022/10/30 10:29:08;;;;;;;;;;;24.10;84.30;;;;;;5111810;28;19908;-85
2022/10/30 10:31:37;;;;;;;;;;;24.10;84.90;;;;;;5112141;28;20163;-85
2022/10/30 10:34:15;;;;;;;;;;;24.10;85.30;;;;;;5112403;28;20018;-85
2022/10/30 10:36:59;;;;;;;;;;;24.00;85.90;;;;;;5112462;28;19964;-86
2022/10/30 10:39:31;;;;;;;;;;;24.00;86.40;;;;;;5114106;28;20174;-85
2022/10/30 10:42:00;;;;;;;;;;;24.00;87.00;;;;;;5114712;28;20277;-85
2022/10/30 10:44:34;;;;;;;;;;;23.90;87.30;;;;;;5113125;28;20039;-85
2022/10/30 10:47:14;;;;;;;;;;;23.90;87.80;;;;;;5111171;28;19919;-85
2022/10/30 10:49:59;;;;;;;;;;;23.90;88.10;;;;;;5093874;28;19947;-86
2022/10/30 10:52:34;;;;;;;;;;;23.80;88.50;;;;;;5092580;28;20312;-85
2022/10/30 10:55:03;;;;;;;;;;;23.80;89.00;;;;;;5092363;28;19909;-86
2022/10/30 10:57:33;;;;;;;;;;;23.70;89.30;;;;;;5089541;28;20196;-86
2022/10/30 11:00:16;;;;;;;;;;;23.70;89.70;;;;;;5088770;28;20013;-86
2022/10/30 11:03:03;;;;;;;;;;;23.70;90.00;;;;;;5086972;28;20293;-86
2022/10/30 11:05:35;;;;;;;;;;;23.60;90.20;;;;;;5087374;28;20011;-86
2022/10/30 11:08:10;;;;;;;;;;;23.60;90.40;;;;;;5087738;28;20113;-86
2022/10/30 11:10:35;;;;;;;;;;;23.60;90.60;;;;;;5085664;28;20050;-86
2022/10/30 11:13:01;;;;;;;;;;;23.60;90.70;;;;;;5087477;28;20151;-87
2022/10/30 11:15:44;;;;;;;;;;;23.60;90.90;;;;;;5087551;28;20194;-88
2022/10/30 11:18:10;;;;;;;;;;;23.50;91.00;;;;;;5088279;28;20235;-88
2022/10/30 11:20:54;;;;;;;;;;;23.50;91.20;;;;;;5089547;28;19908;-88
2022/10/30 11:23:43;;;;;;;;;;;23.50;91.40;;;;;;5090649;28;19912;-88
2022/10/30 11:26:21;;;;;;;;;;;23.50;91.50;;;;;;5081537;28;19908;-87
2022/10/30 11:29:02;;;;;;;;;;;23.50;91.60;;;;;;5091588;28;19919;-89
2022/10/30 11:31:39;;;;;;;;;;;23.50;91.60;;;;;;5089682;28;19912;-88
2022/10/30 11:34:20;;;;;;;;;;;23.40;91.80;;;;;;5089534;28;19915;-88
2022/10/30 11:36:58;;;;;;;;;;;23.40;91.90;;;;;;5087895;28;19908;-87
2022/10/30 11:39:24;;;;;;;;;;;23.40;92.00;;;;;;5084526;28;20015;-87
2022/10/30 11:41:59;;;;;;;;;;;23.40;92.10;;;;;;5086368;28;20217;-88
2022/10/30 11:44:40;;;;;;;;;;;23.40;92.50;;;;;;5085242;28;20026;-87
2022/10/30 11:47:06;;;;;;;;;;;23.30;92.30;;;;;;5091327;28;20136;-83
2022/10/30 11:49:36;;;;;;;;;;;23.30;92.50;;;;;;5096290;28;19953;-83
2022/10/30 11:52:02;;;;;;;;;;;23.30;92.80;;;;;;5095187;28;19919;-87
2022/10/30 11:54:27;;;;;;;;;;;23.20;92.90;;;;;;5129248;22;20265;-10
2022/10/30 11:56:54;;;;;;;;;;;23.20;93.00;;;;;;5116564;28;19957;-10
2022/10/30 11:59:21;;;;;;;;;;;23.20;93.10;;;;;;5122412;28;19912;-10
2022/10/30 12:02:00;;;;;;;;;;;23.20;93.20;;;;;;5122116;28;19907;-9
2022/10/30 12:04:31;;;;;;;;;;;23.20;93.20;;;;;;5121693;28;20276;-8
2022/10/30 12:07:30;;;;;;;;;;;23.20;93.20;;;;;;5121613;28;19927;-8
2022/10/30 12:09:58;;;;;;;;;;;23.20;93.20;;;;;;5119990;28;19908;-8
2022/10/30 12:12:38;;;;;;;;;;;23.10;93.20;;;;;;5121232;28;19918;-8
2022/10/30 12:15:12;;;;;;;;;;;23.10;93.30;;;;;;5121385;28;20176;-11
2022/10/30 12:17:39;;;;;;;;;;;23.10;93.30;;;;;;5120549;28;19919;-9
2022/10/30 12:20:05;;;;;;;;;;;23.10;93.30;;;;;;5120756;28;20008;-10
2022/10/30 12:22:32;;;;;;;;;;;23.10;93.40;;;;;;5120658;28;19918;-8
2022/10/30 12:24:59;;;;;;;;;;;23.10;93.40;;;;;;5120495;28;19911;-9
2022/10/30 12:27:28;;;;;;;;;;;23.10;93.40;;;;;;5121564;28;20011;-9
2022/10/30 12:33:16;;;;;;;;;;;23.10;93.60;;;;;;5117759;28;19919;-8
2022/10/30 12:35:41;;;;;;;;;;;23.10;93.60;;;;;;5121207;28;19907;-7
2022/10/30 12:38:20;;;;;;;;;;;23.10;93.70;;;;;;5119251;28;19908;-9
2022/10/30 12:41:10;;;;;;;;;;;23.10;93.80;;;;;;5120467;28;19908;-9
2022/10/30 12:43:35;;;;;;;;;;;23.10;94.00;;;;;;5109587;28;20014;-9
2022/10/30 12:46:32;;;;;;;;;;;23.10;94.10;;;;;;5119417;28;20339;-9
2022/10/30 12:49:13;;;;;;;;;;;23.00;94.20;;;;;;5120139;28;19938;-8
2022/10/30 12:52:01;;;;;;;;;;;23.00;94.30;;;;;;5119041;28;20410;-10
2022/10/30 12:54:48;;;;;;;;;;;23.00;94.40;;;;;;5120025;28;19915;-7
2022/10/30 12:57:15;;;;;;;;;;;23.00;94.50;;;;;;5119097;28;19968;-9
2022/10/30 12:59:55;;;;;;;;;;;23.00;94.50;;;;;;5120385;28;20007;-8
2022/10/30 13:02:40;;;;;;;;;;;23.00;94.60;;;;;;5120423;28;19930;-8
2022/10/30 13:05:32;;;;;;;;;;;23.00;94.60;;;;;;5119878;28;19922;-8
2022/10/30 13:08:12;;;;;;;;;;;23.00;94.70;;;;;;5096221;28;19958;-9
2022/10/30 13:10:54;;;;;;;;;;;23.00;94.80;;;;;;5120515;28;19918;-8
2022/10/30 13:13:27;;;;;;;;;;;23.00;95.10;;;;;;5113133;28;19908;-8
2022/10/30 13:15:54;;;;;;;;;;;23.00;94.90;;;;;;5098916;28;19912;-10
2022/10/30 13:18:31;;;;;;;;;;;23.00;94.90;;;;;;5098287;28;20331;-8
2022/10/30 13:21:26;;;;;;;;;;;23.00;95.00;;;;;;5098730;28;19908;-9
2022/10/30 13:24:04;;;;;;;;;;;23.00;95.00;;;;;;5085780;28;20328;-8
2022/10/30 13:26:41;;;;;;;;;;;23.00;95.10;;;;;;5099815;28;20270;-7
2022/10/30 13:29:10;;;;;;;;;;;23.00;95.10;;;;;;5098589;28;19908;-9
2022/10/30 13:32:29;;;;;;;;;;;23.00;95.20;;;;;;5099745;28;19920;-7
2022/10/30 13:35:01;;;;;;;;;;;23.00;95.20;;;;;;5026145;28;19917;-10
2022/10/30 13:37:38;;;;;;;;;;;23.00;95.30;;;;;;5094048;28;20025;-10
2022/10/30 13:40:15;;;;;;;;;;;23.00;95.30;;;;;;5099423;28;19927;-9
2022/10/30 13:42:55;;;;;;;;;;;23.00;95.40;;;;;;5098671;28;19943;-9
2022/10/30 13:45:33;;;;;;;;;;;23.00;95.50;;;;;;5110121;28;19972;-10
2022/10/30 13:48:08;;;;;;;;;;;22.90;95.50;;;;;;5118340;28;19908;-9
2022/10/30 13:50:58;;;;;;;;;;;22.90;95.50;;;;;;5118406;28;19907;-9
2022/10/30 13:53:25;;;;;;;;;;;22.90;95.60;;;;;;5117769;28;19968;-9
2022/10/30 13:55:51;;;;;;;;;;;22.90;95.60;;;;;;5118740;28;20414;-8
2022/10/30 13:58:35;;;;;;;;;;;22.90;95.70;;;;;;5118961;28;19908;-9
2022/10/30 14:01:01;;;;;;;;;;;22.90;95.80;;;;;;5119128;28;20330;-8
2022/10/30 14:03:42;;;;;;;;;;;22.90;95.80;;;;;;5118410;28;19912;-11
2022/10/30 14:06:14;;;;;;;;;;;22.90;95.90;;;;;;5118681;28;19908;-8
2022/10/30 14:08:43;;;;;;;;;;;22.90;96.00;;;;;;5118249;28;19919;-9
2022/10/30 14:11:12;;;;;;;;;;;22.90;96.00;;;;;;5118523;28;19908;-9
2022/10/30 14:14:07;;;;;;;;;;;22.80;96.10;;;;;;5118231;28;19908;-9
2022/10/30 14:16:32;;;;;;;;;;;22.90;96.10;;;;;;5114925;28;19945;-9
2022/10/30 14:19:03;;;;;;;;;;;22.80;96.20;;;;;;5118219;28;19999;-9
2022/10/30 14:21:44;;;;;;;;;;;22.80;96.30;;;;;;5117606;28;20440;-9
2022/10/30 14:24:38;;;;;;;;;;;22.80;96.30;;;;;;5118747;28;19912;-9
2022/10/30 14:27:04;;;;;;;;;;;22.80;96.40;;;;;;5118213;28;19908;-9
2022/10/30 14:29:32;;;;;;;;;;;22.80;96.50;;;;;;5118192;28;19915;-9
2022/10/30 14:31:58;;;;;;;;;;;22.80;96.50;;;;;;5117810;28;19976;-10
2022/10/30 14:34:41;;;;;;;;;;;22.80;96.60;;;;;;5117613;28;19919;-8
2022/10/30 14:37:09;;;;;;;;;;;22.80;96.90;;;;;;5117264;28;20002;-11
2022/10/30 14:39:39;;;;;;;;;;;22.80;96.70;;;;;;5117833;28;20280;-9
2022/10/30 14:42:22;;;;;;;;;;;22.80;96.80;;;;;;5118344;28;19908;-9
2022/10/30 14:45:10;;;;;;;;;;;22.80;96.80;;;;;;5118150;28;19922;-9
2022/10/30 14:47:48;;;;;;;;;;;22.70;96.80;;;;;;5117949;28;19911;-9
2022/10/30 14:50:16;;;;;;;;;;;22.70;96.90;;;;;;5117338;28;19929;-9
2022/10/30 14:53:02;;;;;;;;;;;22.70;96.90;;;;;;5117409;28;19915;-8
2022/10/30 14:55:32;;;;;;;;;;;22.70;97.00;;;;;;5117060;28;20173;-7